createdAt,value
2022-11-04T00:03:55.378Z,11.73
2022-11-04T00:08:58.316Z,10.43
2022-11-04T00:13:59.903Z,11.21
2022-11-04T00:19:01.806Z,11.45
2022-11-04T00:24:22.628Z,11.37
2022-11-04T00:29:24.293Z,11.05
2022-11-04T00:34:25.876Z,10.86
2022-11-04T00:39:27.520Z,10.73
2022-11-04T00:44:29.106Z,10.62
2022-11-04T00:49:31.287Z,9.89
2022-11-04T00:54:32.836Z,10.46
2022-11-04T00:59:34.511Z,10.46
2022-11-04T01:04:36.155Z,10.38
2022-11-04T01:09:37.838Z,10.09
2022-11-04T01:14:39.457Z,10.31
2022-11-04T01:19:41.085Z,10.62
2022-11-04T01:24:42.636Z,10.20
2022-11-04T01:29:44.241Z,11.04
2022-11-04T01:34:46.446Z,11.85
2022-11-04T01:39:48.115Z,11.79
2022-11-04T01:44:53.285Z,10.93
2022-11-04T01:50:06.899Z,10.96
2022-11-04T01:55:16.208Z,9.85
2022-11-04T02:00:18.590Z,10.40
2022-11-04T02:05:20.804Z,10.86
2022-11-04T02:10:25.553Z,10.77
2022-11-04T02:15:55.791Z,10.00
2022-11-04T02:21:21.772Z,9.95
2022-11-04T02:32:33.513Z,10.43
2022-11-04T02:37:56.397Z,10.16
2022-11-04T02:43:21.082Z,9.89
2022-11-04T02:48:31.708Z,9.35
2022-11-04T02:53:42.021Z,10.41
2022-11-04T02:59:07.621Z,9.38
2022-11-04T03:04:26.269Z,9.98
2022-11-04T03:09:30.473Z,9.43
2022-11-04T03:14:49.476Z,10.05
2022-11-04T03:19:56.422Z,9.85
2022-11-04T03:24:58.291Z,11.49
2022-11-04T03:30:09.353Z,10.31
2022-11-04T03:35:13.971Z,11.02
2022-11-04T03:40:18.338Z,9.80
2022-11-04T03:45:19.948Z,12.29
2022-11-04T03:50:21.562Z,9.57
2022-11-04T03:56:01.548Z,10.53
2022-11-04T04:01:18.454Z,10.18
2022-11-04T04:06:28.419Z,11.53
2022-11-04T04:11:44.768Z,11.53
2022-11-04T04:16:48.743Z,11.32
2022-11-04T04:21:59.014Z,11.05
2022-11-04T04:27:20.636Z,11.23
2022-11-04T04:32:26.379Z,11.01
2022-11-04T04:37:28.462Z,10.89
2022-11-04T04:42:56.010Z,11.42
2022-11-04T04:47:57.866Z,10.94
2022-11-04T04:53:00.779Z,10.64
2022-11-04T04:58:02.381Z,11.17
2022-11-04T05:03:04.145Z,10.63
2022-11-04T05:08:07.184Z,10.66
2022-11-04T05:13:30.012Z,10.00
2022-11-04T05:18:31.844Z,10.29
2022-11-04T05:23:34.885Z,10.16
2022-11-04T05:28:36.703Z,10.35
2022-11-04T05:33:38.420Z,11.34
2022-11-04T05:38:40.559Z,10.98
2022-11-04T05:43:42.152Z,10.58
2022-11-04T05:48:43.749Z,10.58
2022-11-04T05:53:45.915Z,10.87
2022-11-04T05:58:47.512Z,10.98
2022-11-04T06:03:49.090Z,9.96
2022-11-04T06:08:51.351Z,11.27
2022-11-04T06:13:55.051Z,10.66
2022-11-04T06:19:01.392Z,10.68
2022-11-04T06:24:08.145Z,10.07
2022-11-04T06:29:09.954Z,10.60
2022-11-04T06:34:11.580Z,10.30
2022-11-04T06:39:13.162Z,10.50
2022-11-04T06:44:14.915Z,10.06
2022-11-04T06:49:20.090Z,11.73
2022-11-04T06:54:21.703Z,10.93
2022-11-04T06:59:24.090Z,10.62
2022-11-04T07:04:25.727Z,10.42
2022-11-04T07:09:27.395Z,8.60
2022-11-04T07:14:29.078Z,9.98
2022-11-04T07:19:30.664Z,10.55
2022-11-04T07:24:33.182Z,9.57
2022-11-04T07:29:34.879Z,8.88
2022-11-04T07:34:36.494Z,9.82
2022-11-04T07:39:38.099Z,10.63
2022-11-04T07:44:39.694Z,10.35
2022-11-04T07:49:41.305Z,9.76
2022-11-04T07:54:42.931Z,10.44
2022-11-04T07:59:44.529Z,10.20
2022-11-04T08:04:46.182Z,10.79
2022-11-04T08:09:47.772Z,10.78
2022-11-04T08:14:49.384Z,9.31
2022-11-04T08:19:51.032Z,9.72
2022-11-04T08:24:52.645Z,11.35
2022-11-04T08:29:54.228Z,11.49
2022-11-04T08:34:56.418Z,11.42
2022-11-04T08:39:58.006Z,10.75
2022-11-04T08:44:59.738Z,11.54
2022-11-04T08:50:01.337Z,11.92
2022-11-04T08:55:03.150Z,12.30
2022-11-04T09:00:05.263Z,11.35
2022-11-04T09:05:07.182Z,10.70
2022-11-04T09:10:10.346Z,12.26
2022-11-04T09:15:12.547Z,12.09
2022-11-04T09:20:14.196Z,12.49
2022-11-04T09:25:15.869Z,11.88
2022-11-04T09:30:17.564Z,11.60
2022-11-04T09:35:19.512Z,11.16
2022-11-04T09:40:24.464Z,10.56
2022-11-04T09:45:31.520Z,11.98
2022-11-04T09:50:50.957Z,12.10
2022-11-04T09:56:10.930Z,11.28
2022-11-04T10:01:21.948Z,12.15
2022-11-04T10:07:02.658Z,12.60
2022-11-04T10:12:25.619Z,11.40
2022-11-04T10:18:06.404Z,12.36
2022-11-04T10:23:28.189Z,11.90
2022-11-04T10:28:36.221Z,11.98
2022-11-04T10:33:42.931Z,11.33
2022-11-04T10:38:52.012Z,12.81
2022-11-04T10:44:05.594Z,13.18
2022-11-04T10:49:28.591Z,13.87
2022-11-04T10:54:33.575Z,13.48
2022-11-04T10:59:55.027Z,14.13
2022-11-04T11:06:19.799Z,10.64
2022-11-04T11:11:45.352Z,11.58
2022-11-04T11:16:48.218Z,11.76
2022-11-04T11:21:52.813Z,11.26
2022-11-04T11:27:00.903Z,12.39
2022-11-04T11:32:02.514Z,11.50
2022-11-04T11:37:05.288Z,12.23
2022-11-04T11:42:19.089Z,13.46
2022-11-04T11:47:22.362Z,13.65
2022-11-04T11:52:29.948Z,13.30
2022-11-04T12:09:16.661Z,12.68
2022-11-04T12:14:33.339Z,12.54
2022-11-04T12:19:55.471Z,13.09
2022-11-04T12:25:27.086Z,12.80
2022-11-04T12:30:38.181Z,13.00
2022-11-04T12:36:00.827Z,13.17
2022-11-04T12:41:34.226Z,11.64
2022-11-04T12:46:37.543Z,11.83
2022-11-04T12:51:45.252Z,12.80
2022-11-04T12:56:56.708Z,12.76
2022-11-04T13:02:07.431Z,13.72
2022-11-04T13:07:15.863Z,13.63
2022-11-04T13:12:21.352Z,13.07
2022-11-04T13:17:43.776Z,12.45
2022-11-04T13:22:48.635Z,13.42
2022-11-04T13:27:51.321Z,13.39
2022-11-04T13:33:09.046Z,13.66
2022-11-04T13:38:18.611Z,13.80
2022-11-04T13:43:38.326Z,13.01
2022-11-04T13:48:58.485Z,11.87
2022-11-04T13:54:00.157Z,12.13
2022-11-04T13:59:07.580Z,13.12
2022-11-04T14:04:31.041Z,13.31
2022-11-04T14:09:50.543Z,13.37
2022-11-04T14:15:04.056Z,14.31
2022-11-04T14:20:06.432Z,13.88
2022-11-04T14:25:29.350Z,14.64
2022-11-04T14:30:44.051Z,14.73
2022-11-04T14:35:46.842Z,14.30
2022-11-04T14:41:12.324Z,13.45
2022-11-04T14:46:20.947Z,14.82
2022-11-04T14:51:28.004Z,15.17
2022-11-04T14:56:29.729Z,14.65
2022-11-04T15:01:35.540Z,14.88
2022-11-04T15:07:01.624Z,15.24
2022-11-04T15:12:33.434Z,14.12
2022-11-04T15:17:35.194Z,14.63
2022-11-04T15:22:37.020Z,14.80
2022-11-04T15:27:40.834Z,14.92
2022-11-04T15:32:53.494Z,14.82
2022-11-04T15:37:56.869Z,15.92
2022-11-04T15:43:00.214Z,16.00
2022-11-04T15:48:23.409Z,14.12
2022-11-04T15:53:25.046Z,14.30
2022-11-04T15:58:27.822Z,14.25
2022-11-04T16:03:29.481Z,14.84
2022-11-04T16:08:32.236Z,14.41
2022-11-04T16:13:33.884Z,15.53
2022-11-04T16:18:36.898Z,13.67
2022-11-04T16:23:54.550Z,13.11
2022-11-04T16:28:59.321Z,15.25
2022-11-04T16:34:01.625Z,14.50
2022-11-04T16:39:08.578Z,14.60
2022-11-04T16:44:20.595Z,13.83
2022-11-04T16:49:22.508Z,12.97
2022-11-04T16:54:24.766Z,13.67
2022-11-04T16:59:26.357Z,12.49
2022-11-04T17:04:27.967Z,13.61
2022-11-04T17:09:29.573Z,14.60
2022-11-04T17:14:31.203Z,13.82
2022-11-04T17:19:34.806Z,13.32
2022-11-04T17:24:37.568Z,13.50
2022-11-04T17:29:39.421Z,14.01
2022-11-04T17:34:41.112Z,13.66
2022-11-04T17:39:42.733Z,13.85
2022-11-04T17:44:44.324Z,13.40
2022-11-04T17:49:45.923Z,14.45
2022-11-04T17:54:47.543Z,13.87
2022-11-04T17:59:49.216Z,12.68
2022-11-04T18:04:50.931Z,12.63
2022-11-04T18:09:52.549Z,11.57
2022-11-04T18:14:54.238Z,11.86
2022-11-04T18:19:56.163Z,12.06
2022-11-04T18:24:57.980Z,11.96
2022-11-04T18:29:59.640Z,11.97
2022-11-04T18:35:01.311Z,12.16
2022-11-04T18:40:03.040Z,12.14
2022-11-04T18:45:05.106Z,12.78
2022-11-04T18:50:07.165Z,12.41
2022-11-04T18:55:09.383Z,13.57
2022-11-04T19:00:17.110Z,12.97
2022-11-04T19:05:19.188Z,14.80
2022-11-04T19:10:22.927Z,13.85
2022-11-04T19:15:25.299Z,13.56
2022-11-04T19:20:27.262Z,14.82
2022-11-04T19:25:29.334Z,13.04
2022-11-04T19:30:31.536Z,10.83
2022-11-04T19:35:33.199Z,12.11
2022-11-04T19:40:34.967Z,12.05
2022-11-04T19:45:41.852Z,12.39
2022-11-04T19:50:49.072Z,11.41
2022-11-04T19:55:54.306Z,12.85
2022-11-04T20:00:56.050Z,12.35
2022-11-04T20:05:57.845Z,11.86
2022-11-04T20:11:03.253Z,11.42
2022-11-04T20:16:15.003Z,12.29
2022-11-04T20:21:18.664Z,12.71
2022-11-04T20:26:24.409Z,13.32
2022-11-04T20:31:28.942Z,12.32
2022-11-04T20:36:30.988Z,12.47
2022-11-04T20:41:33.549Z,10.75
2022-11-04T20:46:35.603Z,11.00
2022-11-04T20:51:48.804Z,10.91
2022-11-04T20:56:53.455Z,10.99
2022-11-04T21:01:55.264Z,12.06
2022-11-04T21:06:57.009Z,12.55
2022-11-04T21:11:58.636Z,10.68
2022-11-04T21:17:01.730Z,11.00
2022-11-04T21:22:03.343Z,11.57
2022-11-04T21:27:04.973Z,11.25
2022-11-04T21:32:06.735Z,10.31
2022-11-04T21:37:08.369Z,10.56
2022-11-04T21:42:09.970Z,12.18
2022-11-04T21:47:11.754Z,11.79
2022-11-04T21:52:13.336Z,12.04
2022-11-04T21:57:14.976Z,9.76
2022-11-04T22:02:16.674Z,11.44
2022-11-04T22:07:38.319Z,10.84
2022-11-04T22:12:39.943Z,11.15
2022-11-04T22:17:41.559Z,11.66
2022-11-04T22:22:43.173Z,11.30
2022-11-04T22:27:44.812Z,12.52
2022-11-04T22:32:46.718Z,12.08
2022-11-04T22:37:48.438Z,11.35
2022-11-04T22:42:51.543Z,12.66
2022-11-04T22:47:53.236Z,10.98
2022-11-04T22:52:54.872Z,11.57
2022-11-04T22:57:57.538Z,11.97
2022-11-04T23:02:59.349Z,11.51
2022-11-04T23:08:01.721Z,11.09
2022-11-04T23:13:22.282Z,12.06
2022-11-04T23:18:42.440Z,12.08
2022-11-04T23:24:03.046Z,10.83
2022-11-04T23:29:23.027Z,10.62
2022-11-04T23:34:43.211Z,11.55
2022-11-04T23:39:46.745Z,11.52
2022-11-04T23:45:14.592Z,11.26
2022-11-04T23:50:35.450Z,11.64
2022-11-04T23:55:55.623Z,12.40
